sensor_id;sensor_type;location;lat;lon;timestamp;temperature;humidity
13721;DHT22;6932;51.438;5.470;2023-07-13T00:00:28;24.10;64.50
13721;DHT22;6932;51.438;5.470;2023-07-13T00:02:56;24.10;64.50
13721;DHT22;6932;51.438;5.470;2023-07-13T00:05:22;24.10;64.70
13721;DHT22;6932;51.438;5.470;2023-07-13T00:07:49;24.10;64.70
13721;DHT22;6932;51.438;5.470;2023-07-13T00:10:16;24.10;64.80
13721;DHT22;6932;51.438;5.470;2023-07-13T00:12:43;24.00;65.00
13721;DHT22;6932;51.438;5.470;2023-07-13T00:15:18;24.00;65.70
13721;DHT22;6932;51.438;5.470;2023-07-13T00:17:52;24.00;65.30
13721;DHT22;6932;51.438;5.470;2023-07-13T00:20:21;24.00;65.30
13721;DHT22;6932;51.438;5.470;2023-07-13T00:22:48;23.90;65.40
13721;DHT22;6932;51.438;5.470;2023-07-13T00:25:15;23.90;65.40
13721;DHT22;6932;51.438;5.470;2023-07-13T00:27:42;23.90;65.50
13721;DHT22;6932;51.438;5.470;2023-07-13T00:30:09;23.90;65.50
13721;DHT22;6932;51.438;5.470;2023-07-13T00:32:36;23.90;65.50
13721;DHT22;6932;51.438;5.470;2023-07-13T00:35:03;23.80;65.40
13721;DHT22;6932;51.438;5.470;2023-07-13T00:37:30;23.80;65.50
13721;DHT22;6932;51.438;5.470;2023-07-13T00:39:56;23.80;65.60
13721;DHT22;6932;51.438;5.470;2023-07-13T00:42:22;23.80;65.90
13721;DHT22;6932;51.438;5.470;2023-07-13T00:47:52;23.70;66.00
13721;DHT22;6932;51.438;5.470;2023-07-13T00:50:21;23.70;66.20
13721;DHT22;6932;51.438;5.470;2023-07-13T00:52:51;23.70;66.50
13721;DHT22;6932;51.438;5.470;2023-07-13T00:55:21;23.70;66.60
13721;DHT22;6932;51.438;5.470;2023-07-13T00:57:47;23.60;66.70
13721;DHT22;6932;51.438;5.470;2023-07-13T01:00:13;23.60;66.80
13721;DHT22;6932;51.438;5.470;2023-07-13T01:02:42;23.60;67.10
13721;DHT22;6932;51.438;5.470;2023-07-13T01:05:16;23.50;67.20
13721;DHT22;6932;51.438;5.470;2023-07-13T01:07:45;23.50;67.30
13721;DHT22;6932;51.438;5.470;2023-07-13T01:10:13;23.50;67.40
13721;DHT22;6932;51.438;5.470;2023-07-13T01:12:39;23.50;67.50
13721;DHT22;6932;51.438;5.470;2023-07-13T01:18:11;23.50;67.60
13721;DHT22;6932;51.438;5.470;2023-07-13T01:20:56;23.50;67.60
13721;DHT22;6932;51.438;5.470;2023-07-13T01:23:27;23.50;67.60
13721;DHT22;6932;51.438;5.470;2023-07-13T01:25:55;23.50;67.70
13721;DHT22;6932;51.438;5.470;2023-07-13T01:28:23;23.50;67.80
13721;DHT22;6932;51.438;5.470;2023-07-13T01:30:53;23.50;68.50
13721;DHT22;6932;51.438;5.470;2023-07-13T01:33:20;23.50;68.00
13721;DHT22;6932;51.438;5.470;2023-07-13T01:35:46;23.40;68.10
13721;DHT22;6932;51.438;5.470;2023-07-13T01:38:15;23.40;68.30
13721;DHT22;6932;51.438;5.470;2023-07-13T01:40:43;23.40;69.10
13721;DHT22;6932;51.438;5.470;2023-07-13T01:43:10;23.40;68.50
13721;DHT22;6932;51.438;5.470;2023-07-13T01:45:36;23.40;69.20
13721;DHT22;6932;51.438;5.470;2023-07-13T01:48:02;23.40;68.70
13721;DHT22;6932;51.438;5.470;2023-07-13T01:50:28;23.40;68.80
13721;DHT22;6932;51.438;5.470;2023-07-13T01:52:54;23.40;68.90
13721;DHT22;6932;51.438;5.470;2023-07-13T01:55:20;23.30;68.90
13721;DHT22;6932;51.438;5.470;2023-07-13T01:57:47;23.30;69.10
13721;DHT22;6932;51.438;5.470;2023-07-13T02:00:14;23.30;69.10
13721;DHT22;6932;51.438;5.470;2023-07-13T02:02:40;23.30;69.30
13721;DHT22;6932;51.438;5.470;2023-07-13T02:05:07;23.30;69.30
13721;DHT22;6932;51.438;5.470;2023-07-13T02:07:33;23.30;69.30
13721;DHT22;6932;51.438;5.470;2023-07-13T02:09:58;23.30;69.30
13721;DHT22;6932;51.438;5.470;2023-07-13T02:12:24;23.30;69.40
13721;DHT22;6932;51.438;5.470;2023-07-13T02:14:50;23.30;70.10
13721;DHT22;6932;51.438;5.470;2023-07-13T02:17:16;23.30;69.50
13721;DHT22;6932;51.438;5.470;2023-07-13T02:19:41;23.30;69.50
13721;DHT22;6932;51.438;5.470;2023-07-13T02:22:07;23.30;70.30
13721;DHT22;6932;51.438;5.470;2023-07-13T02:24:33;23.20;69.70
13721;DHT22;6932;51.438;5.470;2023-07-13T02:26:58;23.20;69.90
13721;DHT22;6932;51.438;5.470;2023-07-13T02:29:24;23.20;70.50
13721;DHT22;6932;51.438;5.470;2023-07-13T02:31:50;23.20;70.00
13721;DHT22;6932;51.438;5.470;2023-07-13T02:34:16;23.20;70.20
13721;DHT22;6932;51.438;5.470;2023-07-13T02:36:42;23.20;70.30
13721;DHT22;6932;51.438;5.470;2023-07-13T02:39:08;23.10;70.30
13721;DHT22;6932;51.438;5.470;2023-07-13T02:41:36;23.10;70.40
13721;DHT22;6932;51.438;5.470;2023-07-13T02:44:02;23.10;70.60
13721;DHT22;6932;51.438;5.470;2023-07-13T02:46:32;23.10;70.60
13721;DHT22;6932;51.438;5.470;2023-07-13T02:48:59;23.10;70.70
13721;DHT22;6932;51.438;5.470;2023-07-13T02:51:26;23.10;70.80
13721;DHT22;6932;51.438;5.470;2023-07-13T02:53:52;23.00;71.50
13721;DHT22;6932;51.438;5.470;2023-07-13T02:56:24;23.00;70.90
13721;DHT22;6932;51.438;5.470;2023-07-13T02:58:51;23.00;71.00
13721;DHT22;6932;51.438;5.470;2023-07-13T03:01:17;23.00;71.20
13721;DHT22;6932;51.438;5.470;2023-07-13T03:03:45;23.00;71.30
13721;DHT22;6932;51.438;5.470;2023-07-13T03:06:11;23.00;71.30
13721;DHT22;6932;51.438;5.470;2023-07-13T03:08:38;23.00;71.40
13721;DHT22;6932;51.438;5.470;2023-07-13T03:11:12;23.00;71.50
13721;DHT22;6932;51.438;5.470;2023-07-13T03:13:41;22.90;72.10
13721;DHT22;6932;51.438;5.470;2023-07-13T03:16:08;22.90;71.60
13721;DHT22;6932;51.438;5.470;2023-07-13T03:18:36;22.90;72.40
13721;DHT22;6932;51.438;5.470;2023-07-13T03:21:02;22.90;71.80
13721;DHT22;6932;51.438;5.470;2023-07-13T03:23:29;22.90;72.00
13721;DHT22;6932;51.438;5.470;2023-07-13T03:26:10;22.80;72.00
13721;DHT22;6932;51.438;5.470;2023-07-13T03:28:38;22.80;72.10
13721;DHT22;6932;51.438;5.470;2023-07-13T03:31:07;22.80;72.20
13721;DHT22;6932;51.438;5.470;2023-07-13T03:33:38;22.80;72.30
13721;DHT22;6932;51.438;5.470;2023-07-13T03:36:05;22.80;72.30
13721;DHT22;6932;51.438;5.470;2023-07-13T03:38:33;22.80;72.40
13721;DHT22;6932;51.438;5.470;2023-07-13T03:41:00;22.80;72.50
13721;DHT22;6932;51.438;5.470;2023-07-13T03:43:26;22.80;72.60
13721;DHT22;6932;51.438;5.470;2023-07-13T03:45:52;22.80;72.60
13721;DHT22;6932;51.438;5.470;2023-07-13T03:48:17;22.70;72.60
13721;DHT22;6932;51.438;5.470;2023-07-13T03:50:43;22.70;73.40
13721;DHT22;6932;51.438;5.470;2023-07-13T03:53:09;22.70;72.90
13721;DHT22;6932;51.438;5.470;2023-07-13T03:55:35;22.70;73.00
13721;DHT22;6932;51.438;5.470;2023-07-13T03:58:32;22.70;73.00
13721;DHT22;6932;51.438;5.470;2023-07-13T04:01:04;22.70;73.20
13721;DHT22;6932;51.438;5.470;2023-07-13T04:03:32;22.70;73.20
13721;DHT22;6932;51.438;5.470;2023-07-13T04:06:03;22.60;73.30
13721;DHT22;6932;51.438;5.470;2023-07-13T04:08:32;22.60;73.60
13721;DHT22;6932;51.438;5.470;2023-07-13T04:11:00;22.60;73.80
13721;DHT22;6932;51.438;5.470;2023-07-13T04:13:27;22.60;74.10
13721;DHT22;6932;51.438;5.470;2023-07-13T04:15:53;22.60;74.20
13721;DHT22;6932;51.438;5.470;2023-07-13T04:18:20;22.60;74.30
13721;DHT22;6932;51.438;5.470;2023-07-13T04:20:47;22.60;74.40
13721;DHT22;6932;51.438;5.470;2023-07-13T04:23:14;22.60;74.50
13721;DHT22;6932;51.438;5.470;2023-07-13T04:25:47;22.70;74.60
13721;DHT22;6932;51.438;5.470;2023-07-13T04:28:16;22.70;74.80
13721;DHT22;6932;51.438;5.470;2023-07-13T04:30:43;22.70;74.90
13721;DHT22;6932;51.438;5.470;2023-07-13T04:33:09;22.70;74.90
13721;DHT22;6932;51.438;5.470;2023-07-13T04:35:35;22.80;75.00
13721;DHT22;6932;51.438;5.470;2023-07-13T04:38:01;22.80;75.10
13721;DHT22;6932;51.438;5.470;2023-07-13T04:40:28;22.80;75.20
13721;DHT22;6932;51.438;5.470;2023-07-13T04:42:54;22.80;75.20
13721;DHT22;6932;51.438;5.470;2023-07-13T04:45:21;22.90;75.40
13721;DHT22;6932;51.438;5.470;2023-07-13T04:47:49;22.90;75.50
13721;DHT22;6932;51.438;5.470;2023-07-13T04:50:15;22.90;75.60
13721;DHT22;6932;51.438;5.470;2023-07-13T04:52:45;22.90;75.70
13721;DHT22;6932;51.438;5.470;2023-07-13T04:55:11;22.90;75.80
13721;DHT22;6932;51.438;5.470;2023-07-13T04:57:37;23.00;76.00
13721;DHT22;6932;51.438;5.470;2023-07-13T05:00:04;23.00;76.00
13721;DHT22;6932;51.438;5.470;2023-07-13T05:02:30;23.00;76.20
13721;DHT22;6932;51.438;5.470;2023-07-13T05:04:57;23.00;76.30
13721;DHT22;6932;51.438;5.470;2023-07-13T05:07:23;23.10;77.10
13721;DHT22;6932;51.438;5.470;2023-07-13T05:09:48;23.10;76.50
13721;DHT22;6932;51.438;5.470;2023-07-13T05:12:14;23.20;76.50
13721;DHT22;6932;51.438;5.470;2023-07-13T05:14:40;23.20;76.60
13721;DHT22;6932;51.438;5.470;2023-07-13T05:17:05;23.30;76.60
13721;DHT22;6932;51.438;5.470;2023-07-13T05:19:32;23.30;76.70
13721;DHT22;6932;51.438;5.470;2023-07-13T05:21:57;23.30;76.60
13721;DHT22;6932;51.438;5.470;2023-07-13T05:24:23;23.40;76.70
13721;DHT22;6932;51.438;5.470;2023-07-13T05:26:49;23.40;76.70
13721;DHT22;6932;51.438;5.470;2023-07-13T05:29:15;23.40;76.80
13721;DHT22;6932;51.438;5.470;2023-07-13T05:31:41;23.40;76.80
13721;DHT22;6932;51.438;5.470;2023-07-13T05:34:07;23.40;76.80
13721;DHT22;6932;51.438;5.470;2023-07-13T05:36:32;23.40;76.80
13721;DHT22;6932;51.438;5.470;2023-07-13T05:38:58;23.40;76.80
13721;DHT22;6932;51.438;5.470;2023-07-13T05:41:24;23.40;76.80
13721;DHT22;6932;51.438;5.470;2023-07-13T05:43:49;23.50;77.00
13721;DHT22;6932;51.438;5.470;2023-07-13T05:46:15;23.50;76.90
13721;DHT22;6932;51.438;5.470;2023-07-13T05:48:41;23.50;76.90
13721;DHT22;6932;51.438;5.470;2023-07-13T05:51:07;23.50;76.90
13721;DHT22;6932;51.438;5.470;2023-07-13T05:53:34;23.50;76.90
13721;DHT22;6932;51.438;5.470;2023-07-13T05:56:00;23.50;77.00
13721;DHT22;6932;51.438;5.470;2023-07-13T05:58:26;23.50;77.00
13721;DHT22;6932;51.438;5.470;2023-07-13T06:01:03;23.60;77.10
13721;DHT22;6932;51.438;5.470;2023-07-13T06:03:30;23.50;77.00
13721;DHT22;6932;51.438;5.470;2023-07-13T06:05:57;23.60;77.00
13721;DHT22;6932;51.438;5.470;2023-07-13T06:08:23;23.60;76.90
13721;DHT22;6932;51.438;5.470;2023-07-13T06:10:48;23.70;76.90
13721;DHT22;6932;51.438;5.470;2023-07-13T06:13:14;23.70;76.90
13721;DHT22;6932;51.438;5.470;2023-07-13T06:15:40;23.70;76.90
13721;DHT22;6932;51.438;5.470;2023-07-13T06:18:05;23.70;77.00
13721;DHT22;6932;51.438;5.470;2023-07-13T06:20:33;23.70;76.90
13721;DHT22;6932;51.438;5.470;2023-07-13T06:23:01;23.70;77.00
13721;DHT22;6932;51.438;5.470;2023-07-13T06:25:27;23.70;77.00
13721;DHT22;6932;51.438;5.470;2023-07-13T06:27:52;23.70;77.60
13721;DHT22;6932;51.438;5.470;2023-07-13T06:30:18;23.80;77.10
13721;DHT22;6932;51.438;5.470;2023-07-13T06:32:44;23.80;77.00
13721;DHT22;6932;51.438;5.470;2023-07-13T06:35:10;23.80;77.10
13721;DHT22;6932;51.438;5.470;2023-07-13T06:37:38;23.80;77.00
13721;DHT22;6932;51.438;5.470;2023-07-13T06:40:04;23.80;77.10
13721;DHT22;6932;51.438;5.470;2023-07-13T06:42:30;23.80;77.10
13721;DHT22;6932;51.438;5.470;2023-07-13T06:44:56;23.80;77.00
13721;DHT22;6932;51.438;5.470;2023-07-13T06:47:21;23.80;77.10
13721;DHT22;6932;51.438;5.470;2023-07-13T06:49:47;23.80;77.00
13721;DHT22;6932;51.438;5.470;2023-07-13T06:52:13;23.90;77.20
13721;DHT22;6932;51.438;5.470;2023-07-13T06:54:39;23.80;77.10
13721;DHT22;6932;51.438;5.470;2023-07-13T06:57:05;23.90;77.10
13721;DHT22;6932;51.438;5.470;2023-07-13T06:59:31;23.90;77.10
13721;DHT22;6932;51.438;5.470;2023-07-13T07:01:56;23.90;77.10
13721;DHT22;6932;51.438;5.470;2023-07-13T07:04:22;23.90;77.10
13721;DHT22;6932;51.438;5.470;2023-07-13T07:06:48;24.00;77.10
13721;DHT22;6932;51.438;5.470;2023-07-13T07:09:13;24.00;77.00
13721;DHT22;6932;51.438;5.470;2023-07-13T07:11:41;24.00;76.90
13721;DHT22;6932;51.438;5.470;2023-07-13T07:14:08;24.00;76.90
13721;DHT22;6932;51.438;5.470;2023-07-13T07:16:34;24.00;77.00
13721;DHT22;6932;51.438;5.470;2023-07-13T07:19:00;24.00;77.00
13721;DHT22;6932;51.438;5.470;2023-07-13T07:21:26;24.10;77.10
13721;DHT22;6932;51.438;5.470;2023-07-13T07:23:52;24.10;77.00
13721;DHT22;6932;51.438;5.470;2023-07-13T07:26:19;24.10;77.10
13721;DHT22;6932;51.438;5.470;2023-07-13T07:28:45;24.20;77.20
13721;DHT22;6932;51.438;5.470;2023-07-13T07:31:11;24.20;77.10
13721;DHT22;6932;51.438;5.470;2023-07-13T07:33:37;24.20;77.00
13721;DHT22;6932;51.438;5.470;2023-07-13T07:36:03;24.30;76.80
13721;DHT22;6932;51.438;5.470;2023-07-13T07:38:29;24.40;76.60
13721;DHT22;6932;51.438;5.470;2023-07-13T07:40:55;24.50;76.60
13721;DHT22;6932;51.438;5.470;2023-07-13T07:43:21;24.50;76.40
13721;DHT22;6932;51.438;5.470;2023-07-13T07:45:46;24.60;76.40
13721;DHT22;6932;51.438;5.470;2023-07-13T07:48:12;24.70;76.20
13721;DHT22;6932;51.438;5.470;2023-07-13T07:50:38;24.80;76.20
13721;DHT22;6932;51.438;5.470;2023-07-13T07:53:06;24.90;76.20
13721;DHT22;6932;51.438;5.470;2023-07-13T07:55:34;25.00;75.90
13721;DHT22;6932;51.438;5.470;2023-07-13T07:58:00;25.10;76.20
13721;DHT22;6932;51.438;5.470;2023-07-13T08:00:26;25.30;75.20
13721;DHT22;6932;51.438;5.470;2023-07-13T08:02:55;25.50;74.90
13721;DHT22;6932;51.438;5.470;2023-07-13T08:05:21;25.60;74.30
13721;DHT22;6932;51.438;5.470;2023-07-13T08:07:47;25.80;74.50
13721;DHT22;6932;51.438;5.470;2023-07-13T08:10:12;26.00;73.30
13721;DHT22;6932;51.438;5.470;2023-07-13T08:12:39;26.10;73.00
13721;DHT22;6932;51.438;5.470;2023-07-13T08:15:09;26.30;72.10
13721;DHT22;6932;51.438;5.470;2023-07-13T08:17:36;26.40;71.80
13721;DHT22;6932;51.438;5.470;2023-07-13T08:20:03;26.50;71.50
13721;DHT22;6932;51.438;5.470;2023-07-13T08:22:29;26.60;71.30
13721;DHT22;6932;51.438;5.470;2023-07-13T08:24:55;26.60;70.90
13721;DHT22;6932;51.438;5.470;2023-07-13T08:27:25;26.70;70.30
13721;DHT22;6932;51.438;5.470;2023-07-13T08:29:52;26.70;70.40
13721;DHT22;6932;51.438;5.470;2023-07-13T08:32:20;26.80;70.00
13721;DHT22;6932;51.438;5.470;2023-07-13T08:34:47;26.80;69.70
13721;DHT22;6932;51.438;5.470;2023-07-13T08:37:14;26.90;69.50
13721;DHT22;6932;51.438;5.470;2023-07-13T08:39:41;26.90;69.20
13721;DHT22;6932;51.438;5.470;2023-07-13T08:47:21;27.00;69.00
13721;DHT22;6932;51.438;5.470;2023-07-13T08:49:50;27.10;69.00
13721;DHT22;6932;51.438;5.470;2023-07-13T08:55:31;27.10;68.30
13721;DHT22;6932;51.438;5.470;2023-07-13T08:58:13;27.20;68.10
13721;DHT22;6932;51.438;5.470;2023-07-13T09:00:56;27.30;68.60
13721;DHT22;6932;51.438;5.470;2023-07-13T09:03:46;27.30;68.00
13721;DHT22;6932;51.438;5.470;2023-07-13T09:06:31;27.40;68.20
13721;DHT22;6932;51.438;5.470;2023-07-13T09:12:02;27.60;67.20
13721;DHT22;6932;51.438;5.470;2023-07-13T09:14:53;27.70;66.80
13721;DHT22;6932;51.438;5.470;2023-07-13T09:17:25;27.70;66.90
13721;DHT22;6932;51.438;5.470;2023-07-13T09:20:31;27.90;66.20
13721;DHT22;6932;51.438;5.470;2023-07-13T09:23:04;27.90;65.40
13721;DHT22;6932;51.438;5.470;2023-07-13T09:25:36;28.10;65.60
13721;DHT22;6932;51.438;5.470;2023-07-13T09:28:25;28.20;65.20
13721;DHT22;6932;51.438;5.470;2023-07-13T09:31:03;28.30;65.10
13721;DHT22;6932;51.438;5.470;2023-07-13T09:33:30;28.50;64.10
13721;DHT22;6932;51.438;5.470;2023-07-13T09:35:57;28.60;63.70
13721;DHT22;6932;51.438;5.470;2023-07-13T09:38:26;28.70;63.60
13721;DHT22;6932;51.438;5.470;2023-07-13T09:41:11;28.80;63.40
13721;DHT22;6932;51.438;5.470;2023-07-13T09:44:14;28.80;63.50
13721;DHT22;6932;51.438;5.470;2023-07-13T09:46:55;28.70;63.80
13721;DHT22;6932;51.438;5.470;2023-07-13T09:49:25;28.70;62.90
13721;DHT22;6932;51.438;5.470;2023-07-13T09:52:06;28.60;63.20
13721;DHT22;6932;51.438;5.470;2023-07-13T09:54:37;28.50;63.30
13721;DHT22;6932;51.438;5.470;2023-07-13T09:57:12;28.40;63.00
13721;DHT22;6932;51.438;5.470;2023-07-13T09:59:43;28.40;63.50
13721;DHT22;6932;51.438;5.470;2023-07-13T10:02:34;28.30;63.80
13721;DHT22;6932;51.438;5.470;2023-07-13T10:05:06;28.30;64.20
13721;DHT22;6932;51.438;5.470;2023-07-13T10:07:42;28.30;64.00
13721;DHT22;6932;51.438;5.470;2023-07-13T10:10:18;28.40;64.00
13721;DHT22;6932;51.438;5.470;2023-07-13T10:12:46;28.40;63.70
13721;DHT22;6932;51.438;5.470;2023-07-13T10:15:21;28.50;63.90
13721;DHT22;6932;51.438;5.470;2023-07-13T10:17:51;28.50;63.40
13721;DHT22;6932;51.438;5.470;2023-07-13T10:20:18;28.70;63.00
13721;DHT22;6932;51.438;5.470;2023-07-13T10:25:31;28.80;63.10
13721;DHT22;6932;51.438;5.470;2023-07-13T10:28:27;28.90;62.80
13721;DHT22;6932;51.438;5.470;2023-07-13T10:30:59;28.90;62.50
13721;DHT22;6932;51.438;5.470;2023-07-13T10:33:26;28.90;61.80
13721;DHT22;6932;51.438;5.470;2023-07-13T10:35:59;28.90;61.70
13721;DHT22;6932;51.438;5.470;2023-07-13T10:38:38;29.00;61.60
13721;DHT22;6932;51.438;5.470;2023-07-13T10:41:14;28.90;62.00
13721;DHT22;6932;51.438;5.470;2023-07-13T10:43:45;28.90;61.20
13721;DHT22;6932;51.438;5.470;2023-07-13T10:46:18;28.90;61.40
13721;DHT22;6932;51.438;5.470;2023-07-13T10:48:51;28.90;61.70
13721;DHT22;6932;51.438;5.470;2023-07-13T10:51:20;28.80;61.20
13721;DHT22;6932;51.438;5.470;2023-07-13T10:53:47;28.80;60.70
13721;DHT22;6932;51.438;5.470;2023-07-13T10:56:33;28.80;61.00
13721;DHT22;6932;51.438;5.470;2023-07-13T10:59:26;28.80;60.60
13721;DHT22;6932;51.438;5.470;2023-07-13T11:01:56;28.80;60.40
13721;DHT22;6932;51.438;5.470;2023-07-13T11:04:26;28.80;60.60
13721;DHT22;6932;51.438;5.470;2023-07-13T11:06:59;28.70;60.50
13721;DHT22;6932;51.438;5.470;2023-07-13T11:09:40;28.70;60.40
13721;DHT22;6932;51.438;5.470;2023-07-13T11:17:36;28.60;60.70
13721;DHT22;6932;51.438;5.470;2023-07-13T11:20:21;28.60;60.70
13721;DHT22;6932;51.438;5.470;2023-07-13T11:22:50;28.60;60.20
13721;DHT22;6932;51.438;5.470;2023-07-13T11:25:37;28.70;63.00
13721;DHT22;6932;51.438;5.470;2023-07-13T11:30:43;28.60;63.20
13721;DHT22;6932;51.438;5.470;2023-07-13T11:33:45;28.50;63.00
13721;DHT22;6932;51.438;5.470;2023-07-13T11:36:21;28.50;63.00
13721;DHT22;6932;51.438;5.470;2023-07-13T11:38:59;28.40;62.20
13721;DHT22;6932;51.438;5.470;2023-07-13T11:41:34;28.40;61.50
13721;DHT22;6932;51.438;5.470;2023-07-13T11:44:14;28.50;61.20
13721;DHT22;6932;51.438;5.470;2023-07-13T11:46:51;28.40;60.70
13721;DHT22;6932;51.438;5.470;2023-07-13T11:49:23;28.50;60.60
13721;DHT22;6932;51.438;5.470;2023-07-13T11:51:50;28.50;60.30
13721;DHT22;6932;51.438;5.470;2023-07-13T11:54:34;28.50;60.40
13721;DHT22;6932;51.438;5.470;2023-07-13T11:57:26;28.50;60.10
13721;DHT22;6932;51.438;5.470;2023-07-13T11:59:56;28.50;59.60
13721;DHT22;6932;51.438;5.470;2023-07-13T12:02:37;28.50;59.50
13721;DHT22;6932;51.438;5.470;2023-07-13T12:05:08;28.50;59.70
13721;DHT22;6932;51.438;5.470;2023-07-13T12:07:38;28.50;59.30
13721;DHT22;6932;51.438;5.470;2023-07-13T12:15:20;28.50;58.50
13721;DHT22;6932;51.438;5.470;2023-07-13T12:17:48;28.50;58.60
13721;DHT22;6932;51.438;5.470;2023-07-13T12:20:27;28.50;58.50
13721;DHT22;6932;51.438;5.470;2023-07-13T12:22:55;28.50;58.40
13721;DHT22;6932;51.438;5.470;2023-07-13T12:25:23;28.50;58.20
13721;DHT22;6932;51.438;5.470;2023-07-13T12:27:51;28.50;57.90
13721;DHT22;6932;51.438;5.470;2023-07-13T12:30:27;28.60;57.80
13721;DHT22;6932;51.438;5.470;2023-07-13T12:33:07;28.60;57.70
13721;DHT22;6932;51.438;5.470;2023-07-13T12:35:55;28.70;57.70
13721;DHT22;6932;51.438;5.470;2023-07-13T12:38:24;28.70;57.50
13721;DHT22;6932;51.438;5.470;2023-07-13T12:40:51;28.80;57.40
13721;DHT22;6932;51.438;5.470;2023-07-13T12:43:20;28.80;57.60
13721;DHT22;6932;51.438;5.470;2023-07-13T12:46:14;28.80;57.50
13721;DHT22;6932;51.438;5.470;2023-07-13T12:48:43;28.80;57.60
13721;DHT22;6932;51.438;5.470;2023-07-13T12:51:12;28.20;58.30
13721;DHT22;6932;51.438;5.470;2023-07-13T12:53:47;28.30;58.80
13721;DHT22;6932;51.438;5.470;2023-07-13T12:56:23;28.50;58.80
13721;DHT22;6932;51.438;5.470;2023-07-13T12:58:58;28.60;58.30
13721;DHT22;6932;51.438;5.470;2023-07-13T13:01:30;28.70;58.10
13721;DHT22;6932;51.438;5.470;2023-07-13T13:04:01;28.80;58.10
13721;DHT22;6932;51.438;5.470;2023-07-13T13:06:38;28.70;57.80
13721;DHT22;6932;51.438;5.470;2023-07-13T13:09:12;28.70;57.90
13721;DHT22;6932;51.438;5.470;2023-07-13T13:11:40;28.70;58.10
13721;DHT22;6932;51.438;5.470;2023-07-13T13:14:07;28.60;58.40
13721;DHT22;6932;51.438;5.470;2023-07-13T13:16:47;28.50;59.00
13721;DHT22;6932;51.438;5.470;2023-07-13T13:19:23;28.50;60.20
13721;DHT22;6932;51.438;5.470;2023-07-13T13:21:52;28.40;61.20
13721;DHT22;6932;51.438;5.470;2023-07-13T13:24:24;28.30;62.50
13721;DHT22;6932;51.438;5.470;2023-07-13T13:26:52;28.20;62.80
13721;DHT22;6932;51.438;5.470;2023-07-13T13:29:22;28.10;63.50
13721;DHT22;6932;51.438;5.470;2023-07-13T13:31:53;28.00;63.80
13721;DHT22;6932;51.438;5.470;2023-07-13T13:34:21;27.90;64.00
13721;DHT22;6932;51.438;5.470;2023-07-13T13:36:50;27.90;64.40
13721;DHT22;6932;51.438;5.470;2023-07-13T13:39:35;27.80;64.80
13721;DHT22;6932;51.438;5.470;2023-07-13T13:42:02;27.70;64.90
13721;DHT22;6932;51.438;5.470;2023-07-13T13:44:28;27.70;65.00
13721;DHT22;6932;51.438;5.470;2023-07-13T13:46:55;27.60;64.70
13721;DHT22;6932;51.438;5.470;2023-07-13T13:49:24;27.60;65.40
13721;DHT22;6932;51.438;5.470;2023-07-13T13:51:51;27.50;64.70
13721;DHT22;6932;51.438;5.470;2023-07-13T13:54:19;27.50;64.40
13721;DHT22;6932;51.438;5.470;2023-07-13T13:56:48;27.50;64.20
13721;DHT22;6932;51.438;5.470;2023-07-13T13:59:16;27.40;64.20
13721;DHT22;6932;51.438;5.470;2023-07-13T14:01:43;27.40;65.10
13721;DHT22;6932;51.438;5.470;2023-07-13T14:04:18;27.40;64.50
13721;DHT22;6932;51.438;5.470;2023-07-13T14:06:45;27.40;64.50
13721;DHT22;6932;51.438;5.470;2023-07-13T14:09:14;27.40;64.70
13721;DHT22;6932;51.438;5.470;2023-07-13T14:11:43;27.40;64.60
13721;DHT22;6932;51.438;5.470;2023-07-13T14:14:19;27.30;64.50
13721;DHT22;6932;51.438;5.470;2023-07-13T14:16:47;27.30;64.20
13721;DHT22;6932;51.438;5.470;2023-07-13T14:19:19;27.30;63.60
13721;DHT22;6932;51.438;5.470;2023-07-13T14:21:45;27.30;63.40
13721;DHT22;6932;51.438;5.470;2023-07-13T14:24:12;27.20;63.20
13721;DHT22;6932;51.438;5.470;2023-07-13T14:26:40;27.20;63.50
13721;DHT22;6932;51.438;5.470;2023-07-13T14:29:15;27.10;63.90
13721;DHT22;6932;51.438;5.470;2023-07-13T14:31:43;27.10;64.10
13721;DHT22;6932;51.438;5.470;2023-07-13T14:34:12;27.10;64.40
13721;DHT22;6932;51.438;5.470;2023-07-13T14:36:42;27.00;64.50
13721;DHT22;6932;51.438;5.470;2023-07-13T14:39:24;27.00;64.70
13721;DHT22;6932;51.438;5.470;2023-07-13T14:41:52;27.00;64.90
13721;DHT22;6932;51.438;5.470;2023-07-13T14:44:28;27.00;64.50
13721;DHT22;6932;51.438;5.470;2023-07-13T14:46:57;27.00;64.60
13721;DHT22;6932;51.438;5.470;2023-07-13T14:49:45;27.00;64.40
13721;DHT22;6932;51.438;5.470;2023-07-13T14:52:18;26.90;64.10
13721;DHT22;6932;51.438;5.470;2023-07-13T14:54:47;26.90;64.00
13721;DHT22;6932;51.438;5.470;2023-07-13T14:57:16;27.00;64.20
13721;DHT22;6932;51.438;5.470;2023-07-13T14:59:46;27.00;64.40
13721;DHT22;6932;51.438;5.470;2023-07-13T15:02:31;27.00;64.30
13721;DHT22;6932;51.438;5.470;2023-07-13T15:05:00;27.00;64.10
13721;DHT22;6932;51.438;5.470;2023-07-13T15:07:27;27.00;64.20
13721;DHT22;6932;51.438;5.470;2023-07-13T15:09:52;27.00;63.60
13721;DHT22;6932;51.438;5.470;2023-07-13T15:12:18;27.00;63.30
13721;DHT22;6932;51.438;5.470;2023-07-13T15:14:45;27.00;63.00
13721;DHT22;6932;51.438;5.470;2023-07-13T15:17:36;27.00;63.00
13721;DHT22;6932;51.438;5.470;2023-07-13T15:20:25;27.00;62.70
13721;DHT22;6932;51.438;5.470;2023-07-13T15:22:52;27.10;62.50
13721;DHT22;6932;51.438;5.470;2023-07-13T15:25:22;27.10;62.70
13721;DHT22;6932;51.438;5.470;2023-07-13T15:27:53;27.10;62.80
13721;DHT22;6932;51.438;5.470;2023-07-13T15:30:20;27.10;63.00
13721;DHT22;6932;51.438;5.470;2023-07-13T15:32:47;27.10;63.10
13721;DHT22;6932;51.438;5.470;2023-07-13T15:35:16;27.00;62.90
13721;DHT22;6932;51.438;5.470;2023-07-13T15:37:46;27.10;63.30
13721;DHT22;6932;51.438;5.470;2023-07-13T15:40:13;27.10;63.50
13721;DHT22;6932;51.438;5.470;2023-07-13T15:42:41;27.10;63.70
13721;DHT22;6932;51.438;5.470;2023-07-13T15:45:16;27.10;64.10
13721;DHT22;6932;51.438;5.470;2023-07-13T15:47:45;27.10;64.20
13721;DHT22;6932;51.438;5.470;2023-07-13T15:50:17;27.10;64.20
13721;DHT22;6932;51.438;5.470;2023-07-13T15:52:48;27.20;64.20
13721;DHT22;6932;51.438;5.470;2023-07-13T15:55:16;27.20;64.20
13721;DHT22;6932;51.438;5.470;2023-07-13T15:57:49;27.20;64.30
13721;DHT22;6932;51.438;5.470;2023-07-13T16:00:26;27.20;63.80
13721;DHT22;6932;51.438;5.470;2023-07-13T16:02:53;27.20;63.80
13721;DHT22;6932;51.438;5.470;2023-07-13T16:05:20;27.20;64.10
13721;DHT22;6932;51.438;5.470;2023-07-13T16:07:50;27.10;64.30
13721;DHT22;6932;51.438;5.470;2023-07-13T16:10:27;27.10;64.70
13721;DHT22;6932;51.438;5.470;2023-07-13T16:13:00;27.20;65.10
13721;DHT22;6932;51.438;5.470;2023-07-13T16:15:26;27.10;64.90
13721;DHT22;6932;51.438;5.470;2023-07-13T16:17:53;27.10;64.80
13721;DHT22;6932;51.438;5.470;2023-07-13T16:20:20;27.10;64.70
13721;DHT22;6932;51.438;5.470;2023-07-13T16:22:49;27.10;64.80
13721;DHT22;6932;51.438;5.470;2023-07-13T16:25:22;27.10;65.40
13721;DHT22;6932;51.438;5.470;2023-07-13T16:27:49;27.10;65.90
13721;DHT22;6932;51.438;5.470;2023-07-13T16:30:22;27.00;65.40
13721;DHT22;6932;51.438;5.470;2023-07-13T16:32:55;27.00;65.00
13721;DHT22;6932;51.438;5.470;2023-07-13T16:35:24;27.00;64.90